createdAt,value
2024-01-16T00:04:32.653Z,68.75
2024-01-16T00:14:53.782Z,68.34
2024-01-16T00:25:15.011Z,68.27
2024-01-16T00:35:35.958Z,67.95
2024-01-16T00:45:57.141Z,67.67
2024-01-16T00:56:18.024Z,67.52
2024-01-16T01:06:38.850Z,67.14
2024-01-16T01:16:59.502Z,67.46
2024-01-16T01:27:20.723Z,67.62
2024-01-16T01:37:41.493Z,67.36
2024-01-16T01:48:07.208Z,67.41
2024-01-16T01:58:28.929Z,67.13
2024-01-16T02:08:50.411Z,67.27
2024-01-16T02:19:11.569Z,67.55
2024-01-16T02:29:32.858Z,67.45
2024-01-16T02:39:53.850Z,67.64
2024-01-16T02:50:14.955Z,67.02
2024-01-16T03:00:35.677Z,66.93
2024-01-16T03:10:56.474Z,67.03
2024-01-16T03:21:17.276Z,67.03
2024-01-16T03:31:38.205Z,66.85
2024-01-16T03:41:59.316Z,67.34
2024-01-16T03:52:20.206Z,67.06
2024-01-16T04:02:41.203Z,67.35
2024-01-16T04:13:03.181Z,67.51
2024-01-16T04:23:24.214Z,67.63
2024-01-16T04:33:45.248Z,67.63
2024-01-16T04:44:06.590Z,67.89
2024-01-16T04:54:27.273Z,67.54
2024-01-16T05:04:50.669Z,67.39
2024-01-16T05:15:15.645Z,67.58
2024-01-16T05:25:36.708Z,67.63
2024-01-16T05:36:00.636Z,67.79
2024-01-16T05:46:21.412Z,67.60
2024-01-16T05:56:42.743Z,67.59
2024-01-16T06:07:07.155Z,67.65
2024-01-16T06:17:28.247Z,67.63
2024-01-16T06:27:49.071Z,67.16
2024-01-16T06:38:09.944Z,67.15
2024-01-16T06:48:31.349Z,67.04
2024-01-16T06:58:52.251Z,67.25
2024-01-16T07:09:13.237Z,67.09
2024-01-16T07:19:34.211Z,66.61
2024-01-16T07:29:54.963Z,66.92
2024-01-16T07:40:18.146Z,66.32
2024-01-16T07:50:39.031Z,66.70
2024-01-16T08:00:59.908Z,66.59
2024-01-16T08:11:20.851Z,66.25
2024-01-16T08:21:41.659Z,66.53
2024-01-16T08:32:02.767Z,66.40
2024-01-16T08:42:23.931Z,66.41
2024-01-16T08:52:44.660Z,65.98
2024-01-16T09:03:05.738Z,66.11
2024-01-16T09:13:26.633Z,66.27
2024-01-16T09:23:47.394Z,66.15
2024-01-16T09:34:09.964Z,66.04
2024-01-16T09:44:31.379Z,66.11
2024-01-16T09:54:52.295Z,66.37
2024-01-16T10:05:14.009Z,66.29
2024-01-16T10:15:36.690Z,66.25
2024-01-16T10:26:08.088Z,65.71
2024-01-16T10:36:29.408Z,65.22
2024-01-16T10:46:50.797Z,65.29
2024-01-16T10:57:14.600Z,64.64
2024-01-16T11:07:37.800Z,64.99
2024-01-16T11:18:01.228Z,64.59
2024-01-16T11:28:28.800Z,64.12
2024-01-16T11:38:58.071Z,64.36
2024-01-16T11:49:22.050Z,64.01
2024-01-16T12:00:15.594Z,63.64
2024-01-16T12:10:49.077Z,64.09
2024-01-16T12:21:14.707Z,63.83
2024-01-16T12:31:36.134Z,63.52
2024-01-16T12:41:57.321Z,64.29
2024-01-16T12:52:22.543Z,63.84
2024-01-16T13:02:50.765Z,63.74
2024-01-16T13:13:16.690Z,63.50
2024-01-16T13:23:37.954Z,63.28
2024-01-16T13:33:59.056Z,62.94
2024-01-16T13:44:20.162Z,62.91
2024-01-16T13:54:40.954Z,62.74
2024-01-16T14:05:02.056Z,62.53
2024-01-16T14:15:26.692Z,62.93
2024-01-16T14:25:47.741Z,62.91
2024-01-16T14:36:08.688Z,62.90
2024-01-16T14:46:29.929Z,62.36
2024-01-16T14:56:50.958Z,62.51
2024-01-16T15:07:11.734Z,62.51
2024-01-16T15:17:33.069Z,62.32
2024-01-16T15:27:57.215Z,62.70
2024-01-16T15:38:18.099Z,62.40
2024-01-16T15:48:41.206Z,61.92
2024-01-16T15:59:02.163Z,62.40
2024-01-16T16:09:24.477Z,62.48
2024-01-16T16:19:46.813Z,62.74
2024-01-16T16:30:08.812Z,62.16
2024-01-16T16:40:29.959Z,62.69
2024-01-16T16:50:50.776Z,63.00
2024-01-16T17:01:13.880Z,62.69
2024-01-16T17:11:35.020Z,63.03
2024-01-16T17:21:55.836Z,63.14
2024-01-16T17:32:16.697Z,63.33
2024-01-16T17:42:37.548Z,63.53
2024-01-16T17:53:01.403Z,63.72
2024-01-16T18:03:32.654Z,63.41
2024-01-16T18:14:02.977Z,63.92
2024-01-16T18:24:24.119Z,63.59
2024-01-16T18:34:45.116Z,63.74
2024-01-16T18:45:06.818Z,63.99
2024-01-16T18:55:27.939Z,63.77
2024-01-16T19:05:48.973Z,64.04
2024-01-16T19:16:13.228Z,63.89
2024-01-16T19:26:35.190Z,63.85
2024-01-16T19:36:56.784Z,63.46
2024-01-16T19:47:18.197Z,63.93
2024-01-16T19:57:39.946Z,64.07
2024-01-16T20:08:01.021Z,63.69
2024-01-16T20:18:21.814Z,64.02
2024-01-16T20:28:43.166Z,63.42
2024-01-16T20:39:04.261Z,63.93
2024-01-16T20:49:25.595Z,63.54
2024-01-16T20:59:46.768Z,63.31
2024-01-16T21:10:08.904Z,62.70
2024-01-16T21:20:29.823Z,63.25
2024-01-16T21:30:52.847Z,62.72
2024-01-16T21:41:14.096Z,62.42
2024-01-16T21:51:34.931Z,62.85
2024-01-16T22:01:55.773Z,62.93
2024-01-16T22:12:16.670Z,62.91
2024-01-16T22:22:41.704Z,63.17
2024-01-16T22:33:05.371Z,62.64
2024-01-16T22:43:26.407Z,62.82
2024-01-16T22:53:47.350Z,62.35
2024-01-16T23:04:08.409Z,61.92
2024-01-16T23:14:29.267Z,62.50
2024-01-16T23:24:49.873Z,62.59
2024-01-16T23:35:10.859Z,62.98
2024-01-16T23:45:33.971Z,62.56
2024-01-16T23:55:55.492Z,62.38
